Time;durP1;ratioP1;P1;durP2;ratioP2;P2;SDS_P1;SDS_P2;PMS_P1;PMS_P2;Temp;Humidity;BMP_temperature;BMP_pressure;BME280_temperature;BME280_humidity;BME280_pressure;Samples;Min_cycle;Max_cycle;Signal;HPM_P1;HPM_P2
2022/05/21 00:01:08;;;;;;;11.65;5.28;;;20.00;99.90;;;;;;4661382;30;20058;-82
2022/05/21 00:03:40;;;;;;;7.43;4.90;;;19.80;99.90;;;;;;4647661;30;20050;-80
2022/05/21 00:06:08;;;;;;;9.00;5.45;;;19.50;99.90;;;;;;4661620;30;20051;-77
2022/05/21 00:08:35;;;;;;;7.80;3.95;;;19.30;99.90;;;;;;4624790;30;20070;-77
2022/05/21 00:11:42;;;;;;;7.40;5.30;;;19.10;99.90;;;;;;4661032;30;20069;-82
2022/05/21 00:14:10;;;;;;;8.13;5.35;;;19.00;99.90;;;;;;4660872;30;20063;-81
2022/05/21 00:16:38;;;;;;;5.70;4.47;;;19.00;99.90;;;;;;4632708;30;20050;-81
2022/05/21 00:19:06;;;;;;;9.82;4.85;;;18.90;99.90;;;;;;4662359;30;20061;-82
2022/05/21 00:21:33;;;;;;;11.95;4.88;;;18.80;99.90;;;;;;4646671;30;20046;-84
2022/05/21 00:24:01;;;;;;;8.20;4.47;;;18.80;99.90;;;;;;4632747;30;20063;-82
2022/05/21 00:26:29;;;;;;;4.97;4.10;;;18.70;99.90;;;;;;4646161;30;20421;-79
2022/05/21 00:28:57;;;;;;;8.13;4.43;;;18.60;99.90;;;;;;4660309;30;20073;-83
2022/05/21 00:31:26;;;;;;;10.63;4.50;;;18.50;99.90;;;;;;4659510;30;20058;-81
2022/05/21 00:33:55;;;;;;;8.35;3.63;;;18.30;99.90;;;;;;4632037;30;20054;-79
2022/05/21 00:36:23;;;;;;;3.45;3.17;;;18.20;99.90;;;;;;4645773;30;20050;-86
2022/05/21 00:38:51;;;;;;;5.90;5.20;;;18.00;99.90;;;;;;4646419;30;20057;-82
2022/05/21 00:41:20;;;;;;;7.28;4.63;;;17.90;99.90;;;;;;4661434;30;20055;-82
2022/05/21 00:43:48;;;;;;;7.57;4.90;;;17.80;99.90;;;;;;4662236;30;20062;-82
2022/05/21 00:46:22;;;;;;;5.10;4.70;;;17.60;99.90;;;;;;4660222;30;20062;-83
2022/05/21 00:49:22;;;;;;;9.20;5.00;;;17.60;99.90;;;;;;4659895;30;20053;-83
2022/05/21 00:51:52;;;;;;;6.72;5.53;;;17.50;99.90;;;;;;4646838;30;20283;-83
2022/05/21 00:54:28;;;;;;;9.57;5.32;;;17.50;99.90;;;;;;4646190;30;20434;-85
2022/05/21 00:57:11;;;;;;;7.63;5.35;;;17.40;99.90;;;;;;4660593;30;20057;-85
2022/05/21 00:59:51;;;;;;;7.13;5.05;;;17.40;99.90;;;;;;4630731;30;20109;-82
2022/05/21 01:02:32;;;;;;;7.70;4.13;;;17.40;99.90;;;;;;4660563;30;20073;-84
2022/05/21 01:05:03;;;;;;;5.47;3.85;;;17.40;99.90;;;;;;4646082;30;20054;-82
2022/05/21 01:07:35;;;;;;;4.30;3.90;;;17.40;99.90;;;;;;4646657;30;20517;-81
2022/05/21 01:10:03;;;;;;;6.05;4.60;;;17.40;99.90;;;;;;4645725;30;20421;-82
2022/05/21 01:12:35;;;;;;;17.35;4.95;;;17.40;99.90;;;;;;4661508;30;20421;-81
2022/05/21 01:15:09;;;;;;;8.10;4.85;;;17.40;99.90;;;;;;4660511;30;20509;-82
2022/05/21 01:17:37;;;;;;;11.00;6.55;;;17.40;99.90;;;;;;4662181;30;20054;-83
2022/05/21 01:20:08;;;;;;;9.05;4.95;;;17.30;99.90;;;;;;4662701;30;20513;-83
2022/05/21 01:22:41;;;;;;;9.07;4.47;;;17.30;99.90;;;;;;4645267;30;20059;-82
2022/05/21 01:25:11;;;;;;;5.80;3.97;;;17.30;99.90;;;;;;4647063;30;20050;-82
2022/05/21 01:27:40;;;;;;;4.72;4.30;;;17.30;99.90;;;;;;4663317;30;20058;-83
2022/05/21 01:30:10;;;;;;;11.57;5.28;;;17.30;99.90;;;;;;4647107;30;20062;-83
2022/05/21 01:32:38;;;;;;;5.88;4.93;;;17.30;99.90;;;;;;4662795;30;20050;-82
2022/05/21 01:35:06;;;;;;;5.40;4.90;;;17.40;99.90;;;;;;4663117;30;20069;-83
2022/05/21 01:37:36;;;;;;;6.05;4.38;;;17.40;99.90;;;;;;4661491;30;20401;-83
2022/05/21 01:40:04;;;;;;;6.47;4.78;;;17.40;99.90;;;;;;4662426;30;20073;-84
2022/05/21 01:42:32;;;;;;;4.90;4.50;;;17.30;99.90;;;;;;4633575;30;20066;-83
2022/05/21 01:45:00;;;;;;;11.48;5.80;;;17.20;99.90;;;;;;4660646;30;20055;-81
2022/05/21 01:47:29;;;;;;;5.60;4.53;;;17.10;99.90;;;;;;4664963;30;20494;-82
2022/05/21 01:49:58;;;;;;;7.68;3.88;;;16.90;99.90;;;;;;4636784;30;20069;-82
2022/05/21 01:52:26;;;;;;;11.68;4.60;;;16.70;99.90;;;;;;4679080;30;20057;-81
2022/05/21 01:54:54;;;;;;;10.43;4.68;;;16.70;99.90;;;;;;4664821;30;20069;-83
2022/05/21 01:57:21;;;;;;;9.27;6.13;;;16.60;99.90;;;;;;4650483;30;20069;-84
2022/05/21 01:59:49;;;;;;;10.90;5.53;;;16.50;99.90;;;;;;4678071;30;20054;-85
2022/05/21 02:02:17;;;;;;;7.57;6.78;;;16.40;99.90;;;;;;4666004;30;20046;-85
2022/05/21 02:04:45;;;;;;;18.05;5.18;;;16.30;99.90;;;;;;4650387;30;20046;-85
2022/05/21 02:07:13;;;;;;;9.43;4.90;;;16.20;99.90;;;;;;4651201;30;20508;-86
2022/05/21 02:09:40;;;;;;;8.18;5.10;;;16.20;99.90;;;;;;4649600;30;20556;-87
2022/05/21 02:12:14;;;;;;;6.20;4.82;;;16.10;99.90;;;;;;4650348;30;20062;-85
2022/05/21 02:14:43;;;;;;;5.03;4.53;;;16.00;99.90;;;;;;4649991;30;20061;-85
2022/05/21 02:17:11;;;;;;;4.63;4.22;;;16.00;99.90;;;;;;4664685;30;20061;-86
2022/05/21 02:19:39;;;;;;;8.75;4.47;;;16.00;99.90;;;;;;4636324;30;20061;-85
2022/05/21 02:22:06;;;;;;;10.25;5.30;;;15.90;99.90;;;;;;4636147;30;20054;-86
2022/05/21 02:24:35;;;;;;;4.30;3.75;;;15.90;99.90;;;;;;4664089;30;20065;-86
2022/05/21 02:27:02;;;;;;;11.20;5.28;;;15.80;99.90;;;;;;4650488;30;20050;-85
2022/05/21 02:29:30;;;;;;;4.65;4.22;;;15.80;99.90;;;;;;4634964;30;20054;-84
2022/05/21 02:31:58;;;;;;;16.88;4.88;;;15.70;99.90;;;;;;4650496;30;20069;-84
2022/05/21 02:34:27;;;;;;;26.60;5.90;;;15.70;99.90;;;;;;4664016;30;20065;-84
2022/05/21 02:39:41;;;;;;;6.00;3.75;;;15.60;99.90;;;;;;4665071;30;20057;-84
2022/05/21 02:42:43;;;;;;;4.55;4.07;;;15.60;99.90;;;;;;4664035;30;20079;-83
2022/05/21 02:44:58;;;;;;;11.77;6.05;;;15.60;99.90;;;;;;4634994;30;20059;-84
2022/05/21 02:47:26;;;;;;;8.55;3.08;;;15.60;99.90;;;;;;4650176;30;20080;-83
2022/05/21 02:49:54;;;;;;;5.35;4.78;;;15.60;99.90;;;;;;4649136;30;20089;-83
2022/05/21 02:52:22;;;;;;;4.60;4.22;;;15.50;99.90;;;;;;4664926;30;20386;-84
2022/05/21 02:54:50;;;;;;;5.78;3.47;;;15.50;99.90;;;;;;4650124;30;20633;-83
2022/05/21 02:57:17;;;;;;;5.72;4.75;;;15.50;99.90;;;;;;4649209;30;20051;-84
2022/05/21 02:59:48;;;;;;;5.13;3.75;;;15.40;99.90;;;;;;4661975;30;20503;-82
2022/05/21 03:02:19;;;;;;;4.47;3.70;;;15.40;99.90;;;;;;4649203;30;20066;-84
2022/05/21 03:04:47;;;;;;;10.30;5.28;;;15.40;99.90;;;;;;4647713;30;20066;-85
2022/05/21 03:07:15;;;;;;;10.43;4.43;;;15.40;99.90;;;;;;4648227;30;20055;-81
2022/05/21 03:12:29;;;;;;;5.40;3.75;;;15.30;99.90;;;;;;4632671;30;20058;-82
2022/05/21 03:14:57;;;;;;;8.27;4.43;;;15.30;99.90;;;;;;4660029;30;20080;-83
2022/05/21 03:17:27;;;;;;;11.40;4.53;;;15.30;99.90;;;;;;4629215;30;20059;-83
2022/05/21 03:19:55;;;;;;;3.95;3.65;;;15.30;99.90;;;;;;4643621;30;20055;-84
2022/05/21 03:22:22;;;;;;;6.22;3.88;;;15.30;99.90;;;;;;4629912;30;20079;-84
2022/05/21 03:24:50;;;;;;;4.20;3.50;;;15.30;99.90;;;;;;4629298;30;20063;-83
2022/05/21 03:27:18;;;;;;;3.88;3.55;;;15.20;99.90;;;;;;4629734;30;20075;-83
2022/05/21 03:29:46;;;;;;;5.03;3.63;;;15.20;99.90;;;;;;4629702;30;20062;-84
2022/05/21 03:32:13;;;;;;;5.22;3.95;;;15.20;99.90;;;;;;4615282;30;20059;-83
2022/05/21 03:34:41;;;;;;;3.72;3.42;;;15.20;99.90;;;;;;4629788;31;20063;-83
2022/05/21 03:37:09;;;;;;;3.97;3.60;;;15.20;99.90;;;;;;4629105;30;20055;-84
2022/05/21 03:39:37;;;;;;;3.88;3.45;;;15.20;99.90;;;;;;4643134;30;20043;-84
2022/05/21 03:42:05;;;;;;;6.50;3.10;;;15.20;99.90;;;;;;4644422;30;20068;-83
2022/05/21 03:44:33;;;;;;;6.82;4.68;;;15.20;99.90;;;;;;4646445;30;20051;-83
2022/05/21 03:47:02;;;;;;;5.72;3.80;;;15.20;99.90;;;;;;4647585;30;20057;-83
2022/05/21 03:49:30;;;;;;;6.38;4.82;;;15.30;99.90;;;;;;4645608;30;20066;-85
2022/05/21 03:51:59;;;;;;;6.93;3.55;;;15.20;99.90;;;;;;4659707;30;20509;-84
2022/05/21 03:54:26;;;;;;;6.43;4.75;;;15.20;99.90;;;;;;4652806;30;20050;-84
2022/05/21 03:56:55;;;;;;;4.82;3.50;;;15.30;99.90;;;;;;4663828;30;20437;-84
2022/05/21 03:59:22;;;;;;;5.22;3.25;;;15.30;99.90;;;;;;4661933;30;20074;-82
2022/05/21 04:01:50;;;;;;;7.72;4.15;;;15.30;99.90;;;;;;4634734;30;20046;-82
2022/05/21 04:04:18;;;;;;;4.85;4.38;;;15.30;99.90;;;;;;4663838;30;20516;-83
2022/05/21 04:06:46;;;;;;;10.43;5.43;;;15.30;99.90;;;;;;4663047;30;20141;-83
2022/05/21 04:09:14;;;;;;;8.38;4.10;;;15.40;99.90;;;;;;4647319;30;20075;-83
2022/05/21 04:11:42;;;;;;;4.60;3.90;;;15.40;99.90;;;;;;4634338;30;20065;-83
2022/05/21 04:14:12;;;;;;;5.25;4.47;;;15.30;99.90;;;;;;4663194;30;20072;-84
2022/05/21 04:16:42;;;;;;;4.40;4.00;;;15.30;99.90;;;;;;4663489;30;20054;-83
2022/05/21 04:19:10;;;;;;;3.85;3.45;;;15.30;99.90;;;;;;4663971;30;20066;-83
2022/05/21 04:21:38;;;;;;;5.60;4.32;;;15.30;99.90;;;;;;4663025;30;20422;-83
2022/05/21 04:24:06;;;;;;;6.65;4.13;;;15.40;99.90;;;;;;4663247;30;20410;-83
2022/05/21 04:26:34;;;;;;;7.38;4.88;;;15.40;99.90;;;;;;4648519;30;20149;-83
2022/05/21 04:29:01;;;;;;;7.85;4.97;;;15.40;99.90;;;;;;4648004;30;20059;-83
2022/05/21 04:31:29;;;;;;;9.88;4.10;;;15.40;99.90;;;;;;4661963;30;20055;-83
2022/05/21 04:34:00;;;;;;;3.70;3.10;;;15.40;99.90;;;;;;4663147;30;20077;-83
2022/05/21 04:36:27;;;;;;;4.78;4.38;;;15.40;99.90;;;;;;4663105;30;20050;-83
2022/05/21 04:38:55;;;;;;;4.85;4.13;;;15.40;99.90;;;;;;4663234;30;20054;-82
2022/05/21 04:41:25;;;;;;;6.13;3.90;;;15.40;99.90;;;;;;4647500;30;20062;-83
2022/05/21 04:43:53;;;;;;;4.88;4.47;;;15.40;99.90;;;;;;4663563;30;20066;-83
2022/05/21 04:46:24;;;;;;;9.38;4.70;;;15.40;99.90;;;;;;4662587;30;20055;-83
2022/05/21 04:48:52;;;;;;;4.32;2.85;;;15.40;99.90;;;;;;4661979;30;20156;-84
2022/05/21 04:51:37;;;;;;;6.20;4.35;;;15.40;99.90;;;;;;4648258;30;20050;-83
2022/05/21 04:54:05;;;;;;;4.38;3.83;;;15.50;99.90;;;;;;4662848;30;20057;-83
2022/05/21 04:56:34;;;;;;;4.32;3.95;;;15.70;99.90;;;;;;4647513;30;20073;-84
2022/05/21 04:59:11;;;;;;;4.82;4.00;;;15.70;99.90;;;;;;4661549;30;20062;-83
2022/05/21 05:01:55;;;;;;;5.22;4.75;;;15.90;99.90;;;;;;4662842;30;20079;-86
2022/05/21 05:04:22;;;;;;;3.30;3.00;;;16.00;99.90;;;;;;4647455;30;20644;-85
2022/05/21 05:06:51;;;;;;;4.25;2.90;;;16.10;99.90;;;;;;4648276;30;20050;-84
2022/05/21 05:09:23;;;;;;;4.32;3.92;;;16.20;99.90;;;;;;4661023;30;20525;-84
2022/05/21 05:11:53;;;;;;;3.70;3.40;;;16.30;99.90;;;;;;4648398;30;20059;-84
2022/05/21 05:14:20;;;;;;;8.55;3.47;;;16.40;99.90;;;;;;4646487;30;20073;-83
2022/05/21 05:16:49;;;;;;;5.65;2.58;;;16.60;99.90;;;;;;4662778;30;20058;-85
2022/05/21 05:19:18;;;;;;;5.32;3.00;;;16.50;99.90;;;;;;4630492;30;20070;-84
2022/05/21 05:21:46;;;;;;;2.97;2.72;;;16.40;99.90;;;;;;4645180;30;20065;-82
2022/05/21 05:24:14;;;;;;;7.28;3.53;;;16.50;99.90;;;;;;4630078;30;20059;-83
2022/05/21 05:26:41;;;;;;;4.13;2.80;;;16.50;99.90;;;;;;4645304;30;20077;-83
2022/05/21 05:29:09;;;;;;;8.45;2.90;;;16.50;99.90;;;;;;4629862;30;20055;-80
2022/05/21 05:31:37;;;;;;;5.47;2.60;;;16.50;99.90;;;;;;4630903;30;20058;-82
2022/05/21 05:34:06;;;;;;;2.35;2.17;;;16.50;99.90;;;;;;4644612;30;20058;-79
2022/05/21 05:36:35;;;;;;;3.03;2.75;;;16.60;99.90;;;;;;4616717;30;20054;-83
2022/05/21 05:39:03;;;;;;;3.55;3.17;;;16.60;99.90;;;;;;4648435;30;20054;-84
2022/05/21 05:41:30;;;;;;;2.92;2.72;;;16.30;99.90;;;;;;4646854;30;20054;-84
2022/05/21 05:43:58;;;;;;;7.40;2.75;;;16.20;99.90;;;;;;4620156;30;20502;-84
2022/05/21 05:46:26;;;;;;;2.67;2.47;;;16.40;99.90;;;;;;4646751;30;20510;-84
2022/05/21 05:48:54;;;;;;;3.63;2.85;;;16.60;99.90;;;;;;4661832;30;20058;-84
2022/05/21 05:51:22;;;;;;;3.92;2.40;;;16.60;99.90;;;;;;4647262;30;20058;-84
2022/05/21 05:53:51;;;;;;;3.13;2.88;;;16.60;99.90;;;;;;4647190;30;20062;-82
2022/05/21 05:56:19;;;;;;;3.83;2.90;;;16.90;99.90;;;;;;4646860;30;20057;-84
2022/05/21 06:01:35;;;;;;;3.58;3.17;;;16.90;99.90;;;;;;4661992;30;20054;-83
2022/05/21 06:04:03;;;;;;;4.57;2.83;;;17.00;99.90;;;;;;4647636;30;20059;-82
2022/05/21 06:06:31;;;;;;;3.30;2.85;;;17.00;99.90;;;;;;4661904;30;20542;-81
2022/05/21 06:08:59;;;;;;;2.53;2.33;;;17.10;99.90;;;;;;4632891;30;20051;-83
2022/05/21 06:11:27;;;;;;;2.85;2.28;;;17.10;99.90;;;;;;4647417;30;20074;-83
2022/05/21 06:13:55;;;;;;;2.80;2.42;;;17.10;99.90;;;;;;4662093;30;20051;-83
2022/05/21 06:16:23;;;;;;;6.63;2.45;;;17.00;99.90;;;;;;4660544;30;20347;-82
2022/05/21 06:18:50;;;;;;;2.88;2.67;;;17.10;99.90;;;;;;4662209;30;20466;-83
2022/05/21 06:21:18;;;;;;;2.75;2.55;;;17.20;99.90;;;;;;4632545;30;20050;-78
2022/05/21 06:23:46;;;;;;;4.65;2.33;;;17.10;99.90;;;;;;4647641;30;20051;-82
2022/05/21 06:26:15;;;;;;;8.25;2.97;;;17.30;99.90;;;;;;4632955;30;20058;-82
2022/05/21 06:28:43;;;;;;;3.00;2.75;;;17.50;99.90;;;;;;4661766;30;20061;-83
2022/05/21 06:31:27;;;;;;;2.53;2.33;;;17.30;99.90;;;;;;4647030;30;20067;-79
2022/05/21 06:33:55;;;;;;;2.88;2.65;;;16.90;99.90;;;;;;4649322;30;20054;-83
2022/05/21 06:36:27;;;;;;;3.35;2.83;;;16.70;99.90;;;;;;4665272;30;20058;-82
2022/05/21 06:38:55;;;;;;;4.82;2.92;;;16.70;99.90;;;;;;4650244;30;20062;-83
2022/05/21 06:41:23;;;;;;;11.07;3.58;;;17.00;99.90;;;;;;4649725;30;20062;-82
2022/05/21 06:43:51;;;;;;;2.03;1.90;;;16.90;99.90;;;;;;4665558;30;20058;-81
2022/05/21 06:46:19;;;;;;;2.30;2.10;;;16.80;99.90;;;;;;4664464;30;20403;-82
2022/05/21 06:48:47;;;;;;;3.83;3.15;;;17.00;99.90;;;;;;4663291;30;20489;-82
2022/05/21 06:51:15;;;;;;;4.53;2.45;;;16.90;99.90;;;;;;4664150;30;20065;-82
2022/05/21 06:53:43;;;;;;;1.90;1.80;;;17.10;99.90;;;;;;4635592;30;20063;-83
2022/05/21 06:56:18;;;;;;;2.28;2.03;;;17.30;99.90;;;;;;4649434;30;20533;-83
2022/05/21 06:58:46;;;;;;;3.42;2.45;;;17.40;99.90;;;;;;4649882;30;20063;-78
2022/05/21 07:01:13;;;;;;;3.30;2.50;;;17.50;99.90;;;;;;4634448;30;20434;-83
2022/05/21 07:03:41;;;;;;;2.55;2.38;;;17.60;99.90;;;;;;4664416;30;20058;-82
2022/05/21 07:08:55;;;;;;;6.38;2.92;;;17.30;99.90;;;;;;4634906;30;20525;-83
2022/05/21 07:11:23;;;;;;;2.17;2.03;;;17.30;99.90;;;;;;4649521;30;20058;-82
2022/05/21 07:13:51;;;;;;;7.63;2.25;;;17.40;99.90;;;;;;4664744;30;20058;-82
2022/05/21 07:16:19;;;;;;;4.55;2.22;;;17.40;99.90;;;;;;4634706;30;20403;-83
2022/05/21 07:18:46;;;;;;;3.17;2.45;;;17.40;99.90;;;;;;4649068;30;20066;-83
2022/05/21 07:21:16;;;;;;;6.43;2.92;;;17.00;99.90;;;;;;4677150;30;20054;-81
2022/05/21 07:23:45;;;;;;;2.47;2.28;;;17.10;99.90;;;;;;4663581;30;20058;-79
2022/05/21 07:26:13;;;;;;;5.30;2.55;;;17.60;99.90;;;;;;4664270;30;20058;-80
2022/05/21 07:28:41;;;;;;;4.88;2.92;;;17.70;99.90;;;;;;4663880;30;20069;-84
2022/05/21 07:31:30;;;;;;;2.50;2.30;;;18.00;99.90;;;;;;4648493;30;20120;-79
2022/05/21 07:34:10;;;;;;;2.65;2.45;;;17.80;99.90;;;;;;4677376;30;20046;-83
2022/05/21 07:37:52;;;;;;;2.88;1.80;;;17.70;99.90;;;;;;4671566;30;20059;-82
2022/05/21 07:40:26;;;;;;;1.80;1.70;;;17.80;99.90;;;;;;4647925;30;20616;-82
2022/05/21 07:42:54;;;;;;;;;;;18.00;99.90;;;;;;4650139;30;20093;-82
2022/05/21 07:45:59;;;;;;;2.75;2.53;;;18.20;99.90;;;;;;4666623;30;19952;-84
2022/05/21 07:49:05;;;;;;;2.33;2.13;;;18.20;99.90;;;;;;4649833;30;20070;-82
2022/05/21 07:51:41;;;;;;;2.20;2.00;;;17.80;99.90;;;;;;4664513;30;20398;-82
2022/05/21 08:00:05;;;;;;;2.63;2.42;;;17.90;99.90;;;;;;4577525;31;20598;-84
2022/05/21 08:02:42;;;;;;;2.45;2.35;;;18.00;99.90;;;;;;4566772;31;20057;-81
2022/05/21 08:05:26;;;;;;;1.67;1.58;;;17.90;99.90;;;;;;4594355;31;20067;-82
2022/05/21 08:07:55;;;;;;;2.53;2.42;;;17.80;99.90;;;;;;4597405;31;20051;-81
2022/05/21 08:10:33;;;;;;;2.45;2.25;;;17.40;99.90;;;;;;4559550;31;20060;-82
2022/05/21 08:13:46;;;;;;;2.85;2.10;;;17.30;99.90;;;;;;4577168;31;20431;-84
2022/05/21 08:17:19;;;;;;;4.05;3.13;;;17.50;99.90;;;;;;4577142;31;20509;-81
2022/05/21 08:20:36;;;;;;;1.38;1.27;;;18.00;99.90;;;;;;4502633;31;20062;-83
2022/05/21 08:30:02;;;;;;;2.22;2.03;;;17.40;99.90;;;;;;4515438;31;20053;-83
2022/05/21 08:32:40;;;;;;;7.50;2.40;;;17.70;99.90;;;;;;4589471;31;20075;-79
2022/05/21 08:35:38;;;;;;;8.95;2.83;;;17.80;99.90;;;;;;4594518;31;20067;-83
2022/05/21 08:39:03;;;;;;;5.43;2.17;;;17.90;99.90;;;;;;4544043;31;20071;-83
2022/05/21 08:41:51;;;;;;;2.20;2.05;;;17.90;99.90;;;;;;4564196;31;20060;-84
2022/05/21 08:46:03;;;;;;;;;;;;;;;;;;;;;
2022/05/21 08:49:03;;;;;;;1.42;1.33;;;18.20;99.90;;;;;;4562765;31;20041;-81
2022/05/21 08:51:44;;;;;;;1.58;1.48;;;18.40;99.90;;;;;;4577742;31;20108;-81
2022/05/21 08:54:23;;;;;;;1.48;1.38;;;18.50;99.90;;;;;;4598247;31;20055;-84
2022/05/21 08:56:57;;;;;;;2.67;2.15;;;18.60;99.90;;;;;;4613516;31;20062;-83
2022/05/21 08:59:51;;;;;;;1.55;1.45;;;18.50;99.90;;;;;;4639438;30;20063;-85
2022/05/21 09:02:30;;;;;;;1.70;1.60;;;18.60;99.90;;;;;;4630179;30;20043;-81
2022/05/21 09:05:06;;;;;;;1.70;1.60;;;18.70;99.90;;;;;;4648391;30;20054;-83
2022/05/21 09:08:02;;;;;;;2.10;1.95;;;18.90;99.90;;;;;;4663148;30;20375;-81
2022/05/21 09:10:33;;;;;;;3.88;1.83;;;19.10;99.90;;;;;;4633278;30;20085;-81
2022/05/21 09:13:24;;;;;;;2.15;1.67;;;19.20;99.90;;;;;;4624856;30;20402;-85
2022/05/21 09:18:40;;;;;;;1.92;1.60;;;19.20;99.90;;;;;;4643371;30;20050;-83
2022/05/21 09:21:17;;;;;;;2.13;1.67;;;19.40;99.90;;;;;;4631168;30;20061;-82
2022/05/21 09:23:50;;;;;;;1.23;1.17;;;19.50;99.90;;;;;;4659902;30;20061;-82
2022/05/21 09:26:21;;;;;;;2.05;1.92;;;19.70;99.90;;;;;;4646302;30;20057;-82
2022/05/21 09:29:14;;;;;;;;;;;19.50;99.90;;;;;;4659538;30;20530;-85
2022/05/21 09:31:42;;;;;;;1.70;1.60;;;19.50;99.90;;;;;;4618499;30;19931;-81
2022/05/21 09:34:29;;;;;;;1.55;1.45;;;19.40;99.90;;;;;;4622798;30;20057;-81
2022/05/21 09:37:26;;;;;;;3.17;1.48;;;19.20;99.90;;;;;;4646179;30;20059;-86
2022/05/21 09:39:54;;;;;;;1.83;1.15;;;19.20;99.90;;;;;;4647206;30;20069;-81
2022/05/21 09:45:32;;;;;;;0.98;0.93;;;19.40;99.90;;;;;;4632297;30;20054;-83
2022/05/21 09:48:06;;;;;;;1.42;1.40;;;19.50;99.90;;;;;;4661211;30;20062;-85
2022/05/21 09:50:59;;;;;;;;;;;19.60;99.90;;;;;;4630755;30;20055;-84
2022/05/21 09:53:58;;;;;;;1.55;1.30;;;19.50;99.90;;;;;;4607461;30;19924;-83
2022/05/21 09:56:33;;;;;;;1.10;1.10;;;19.20;99.90;;;;;;4624467;30;22003;-80
2022/05/21 09:59:40;;;;;;;3.40;1.55;;;19.40;99.90;;;;;;4621712;31;20055;-80
2022/05/21 10:03:10;;;;;;;1.75;1.45;;;19.40;99.90;;;;;;4645472;30;20055;-85
2022/05/21 10:06:12;;;;;;;;;;;;;;;;;;;;;
2022/05/21 10:11:51;;;;;;;1.08;1.00;;;19.50;99.90;;;;;;4632728;30;20059;-85
2022/05/21 10:14:29;;;;;;;3.22;1.45;;;19.90;99.90;;;;;;4646887;30;20047;-83
2022/05/21 10:17:01;;;;;;;1.65;1.55;;;20.00;99.90;;;;;;4660346;30;20051;-85
2022/05/21 10:20:06;;;;;;;0.95;0.95;;;20.00;99.90;;;;;;4646575;30;20055;-82
2022/05/21 10:23:04;;;;;;;1.05;0.80;;;20.10;99.90;;;;;;4658275;30;20050;-83
2022/05/21 10:26:01;;;;;;;2.80;0.90;;;20.30;99.90;;;;;;4646047;30;20085;-81
2022/05/21 10:29:13;;;;;;;2.50;1.77;;;20.20;99.90;;;;;;4601782;30;20489;-84
2022/05/21 10:31:52;;;;;;;1.13;1.02;;;20.40;99.90;;;;;;4631814;30;20062;-84
2022/05/21 10:34:59;;;;;;;0.73;0.63;;;20.20;99.90;;;;;;4598777;31;20066;-85
2022/05/21 10:38:08;;;;;;;1.38;1.25;;;20.20;99.90;;;;;;4610452;30;20059;-85
2022/05/21 10:40:52;;;;;;;0.88;0.88;;;20.20;99.90;;;;;;4617182;30;20059;-85
2022/05/21 10:43:39;;;;;;;1.75;1.27;;;19.90;99.90;;;;;;4631930;30;20054;-80
2022/05/21 10:46:53;;;;;;;1.05;1.02;;;20.00;99.90;;;;;;4616065;30;20135;-85
2022/05/21 10:49:54;;;;;;;1.55;1.05;;;20.00;99.90;;;;;;4617420;30;20043;-82
2022/05/21 10:52:43;;;;;;;3.38;1.17;;;20.00;99.90;;;;;;4601657;30;20062;-82
2022/05/21 10:55:44;;;;;;;1.60;0.82;;;19.90;99.90;;;;;;4617728;30;20058;-83
2022/05/21 10:59:01;;;;;;;1.35;1.25;;;19.80;99.90;;;;;;4629834;30;20126;-83
2022/05/21 11:02:03;;;;;;;;;;;;;;;;;;;;;
2022/05/21 11:05:01;;;;;;;3.47;1.15;;;19.90;99.90;;;;;;4591628;31;20074;-85
2022/05/21 11:07:49;;;;;;;1.08;1.08;;;20.20;99.90;;;;;;4581676;31;20520;-83
2022/05/21 11:10:35;;;;;;;4.88;1.33;;;20.20;99.90;;;;;;4567581;31;20056;-83
2022/05/21 11:13:21;;;;;;;0.90;0.90;;;20.30;99.90;;;;;;4595069;31;20052;-84
2022/05/21 11:15:58;;;;;;;1.60;1.40;;;20.40;99.90;;;;;;4595372;31;20072;-84
2022/05/21 11:18:53;;;;;;;0.80;0.80;;;20.70;99.90;;;;;;4582513;31;20052;-82
2022/05/21 11:21:58;;;;;;;1.33;1.02;;;20.60;99.90;;;;;;4580350;31;20063;-86
2022/05/21 11:24:45;;;;;;;1.23;1.13;;;20.40;99.90;;;;;;4576611;31;20071;-83
2022/05/21 11:27:36;;;;;;;1.85;1.42;;;20.50;99.90;;;;;;4603433;30;20066;-83
2022/05/21 11:30:08;;;;;;;0.85;0.63;;;20.50;99.90;;;;;;4593107;31;20066;-87
2022/05/21 11:38:41;;;;;;;1.15;1.15;;;20.80;99.90;;;;;;4644769;30;20051;-85
2022/05/21 11:41:43;;;;;;;1.27;1.10;;;20.80;99.90;;;;;;4625962;30;20054;-83
2022/05/21 11:47:06;;;;;;;0.65;0.65;;;20.70;99.90;;;;;;4632416;30;20510;-85
2022/05/21 11:49:57;;;;;;;1.00;0.93;;;20.50;99.90;;;;;;4645660;30;20073;-82
2022/05/21 11:52:27;;;;;;;1.88;1.55;;;20.60;99.90;;;;;;4647108;30;20418;-79
2022/05/21 11:55:11;;;;;;;;;;;20.70;99.90;;;;;;4647700;30;20069;-80
2022/05/21 11:58:01;;;;;;;3.10;1.45;;;21.00;99.90;;;;;;4646100;30;19932;-79
2022/05/21 12:00:29;;;;;;;1.42;0.88;;;21.10;99.90;;;;;;4659672;30;20058;-82
2022/05/21 12:03:06;;;;;;;0.95;0.95;;;20.80;99.90;;;;;;4663209;30;20054;-87
2022/05/21 12:05:47;;;;;;;1.13;1.02;;;20.90;99.90;;;;;;4640542;30;20059;-84
2022/05/21 12:08:50;;;;;;;0.65;0.65;;;21.00;99.90;;;;;;4617411;30;20411;-85
2022/05/21 12:11:38;;;;;;;0.82;0.82;;;21.20;99.20;;;;;;4618311;30;20511;-84
2022/05/21 12:14:45;;;;;;;0.52;0.52;;;21.00;98.20;;;;;;4644638;30;20054;-83
2022/05/21 12:17:53;;;;;;;1.40;1.00;;;21.00;97.90;;;;;;4631683;30;20059;-85
2022/05/21 12:20:48;;;;;;;0.70;0.70;;;20.80;99.00;;;;;;4645209;30;20062;-84
2022/05/21 12:23:32;;;;;;;1.98;1.05;;;21.00;99.90;;;;;;4645952;30;20063;-86
2022/05/21 12:26:22;;;;;;;2.58;1.00;;;21.10;99.90;;;;;;4659457;30;20145;-83
2022/05/21 12:28:56;;;;;;;0.68;0.60;;;21.10;97.20;;;;;;4645319;30;20047;-86
2022/05/21 12:31:40;;;;;;;1.75;0.68;;;21.10;99.90;;;;;;4617511;30;20062;-82
2022/05/21 12:34:52;;;;;;;0.70;0.70;;;21.20;95.20;;;;;;4617489;30;20055;-84
2022/05/21 12:37:38;;;;;;;0.70;0.70;;;21.10;97.40;;;;;;4630992;30;20145;-83
2022/05/21 12:40:30;;;;;;;0.85;0.80;;;21.10;95.30;;;;;;4631084;30;20055;-81
2022/05/21 12:43:13;;;;;;;1.85;1.05;;;20.70;94.20;;;;;;4620245;30;20054;-81
2022/05/21 12:45:49;;;;;;;0.40;0.40;;;20.50;95.80;;;;;;4618250;30;20388;-81
2022/05/21 12:49:04;;;;;;;0.50;0.50;;;20.80;99.90;;;;;;4606650;30;20054;-86
2022/05/21 12:52:19;;;;;;;0.40;0.40;;;21.10;97.30;;;;;;4633909;30;20705;-82
2022/05/21 12:55:31;;;;;;;0.47;0.47;;;21.30;95.70;;;;;;4635558;30;20067;-84
2022/05/21 12:59:06;;;;;;;0.90;0.90;;;21.30;95.70;;;;;;4636778;30;20065;-87
2022/05/21 13:02:01;;;;;;;0.60;0.60;;;21.10;91.80;;;;;;4646602;30;20673;-82
2022/05/21 13:04:51;;;;;;;0.68;0.60;;;21.00;96.20;;;;;;4647203;30;20406;-80
2022/05/21 13:07:53;;;;;;;0.90;0.60;;;21.30;96.70;;;;;;4643345;30;20059;-80
2022/05/21 13:10:30;;;;;;;2.55;0.85;;;21.20;96.90;;;;;;4644931;30;20061;-79
2022/05/21 13:13:23;;;;;;;0.50;0.50;;;21.40;96.50;;;;;;4658452;25;20065;-83
2022/05/21 13:16:00;;;;;;;0.68;0.68;;;21.50;95.80;;;;;;4663519;30;20069;-82
2022/05/21 13:19:14;;;;;;;1.20;0.85;;;21.60;95.30;;;;;;4661831;30;20429;-80
2022/05/21 13:22:06;;;;;;;0.30;0.30;;;21.30;95.20;;;;;;4646694;30;20051;-84
2022/05/21 13:25:05;;;;;;;4.57;0.85;;;21.30;96.50;;;;;;4648765;30;20054;-79
2022/05/21 13:27:59;;;;;;;5.00;0.90;;;21.50;93.50;;;;;;4636361;30;20059;-83
2022/05/21 13:30:32;;;;;;;6.47;1.25;;;21.60;95.40;;;;;;4647469;30;20050;-83
2022/05/21 13:33:03;;;;;;;0.40;0.40;;;21.70;93.80;;;;;;4661710;30;20051;-82
2022/05/21 13:35:40;;;;;;;0.52;0.52;;;21.60;93.90;;;;;;4647778;30;20066;-84
2022/05/21 13:38:24;;;;;;;0.60;0.60;;;21.40;93.70;;;;;;4647572;30;20051;-84
2022/05/21 13:40:55;;;;;;;0.95;0.90;;;21.50;94.00;;;;;;4649856;30;20124;-85
2022/05/21 13:43:36;;;;;;;0.85;0.85;;;21.60;94.10;;;;;;4656082;30;20062;-84
2022/05/21 13:46:04;;;;;;;0.32;0.32;;;21.70;96.50;;;;;;4649720;30;20054;-85
2022/05/21 13:48:47;;;;;;;0.90;0.90;;;21.90;96.00;;;;;;4637734;30;20513;-85
2022/05/21 13:51:24;;;;;;;0.40;0.40;;;21.90;93.10;;;;;;4665469;30;20063;-83
2022/05/21 13:53:53;;;;;;;0.90;0.63;;;21.80;92.10;;;;;;4664829;30;20061;-83
2022/05/21 13:56:35;;;;;;;0.57;0.57;;;21.70;93.20;;;;;;4664694;30;20066;-87
2022/05/21 13:59:12;;;;;;;2.67;0.93;;;21.80;92.70;;;;;;4665252;30;20513;-84
2022/05/21 14:01:49;;;;;;;0.70;0.70;;;21.70;94.60;;;;;;4637294;30;20081;-83
2022/05/21 14:04:55;;;;;;;0.32;0.32;;;21.80;94.20;;;;;;4651369;30;20501;-83
2022/05/21 14:07:37;;;;;;;0.60;0.45;;;21.60;92.60;;;;;;4651509;30;20063;-90
2022/05/21 14:10:09;;;;;;;1.45;0.70;;;21.50;92.60;;;;;;4633807;30;20058;-87
2022/05/21 14:12:52;;;;;;;2.35;1.10;;;21.60;92.10;;;;;;4647310;30;20058;-84
2022/05/21 14:15:37;;;;;;;0.50;0.50;;;21.80;94.40;;;;;;4621751;30;20066;-80
2022/05/21 14:18:07;;;;;;;0.90;0.90;;;21.80;93.30;;;;;;4593503;30;20462;-80
2022/05/21 14:20:38;;;;;;;0.65;0.60;;;21.80;93.10;;;;;;4568271;31;20064;-82
2022/05/21 14:23:30;;;;;;;0.47;0.47;;;21.70;92.90;;;;;;4596407;31;20603;-83
2022/05/21 14:26:35;;;;;;;0.57;0.57;;;21.60;92.70;;;;;;4561231;31;20057;-82
2022/05/21 14:29:30;;;;;;;0.40;0.40;;;21.50;93.20;;;;;;4581251;31;20056;-87